createdAt,value
2023-03-08T00:02:11.660Z,99762.81
2023-03-08T00:04:41.711Z,99766.94
2023-03-08T00:07:11.824Z,99767.66
2023-03-08T00:09:41.869Z,99775.69
2023-03-08T00:12:11.853Z,99779.79
2023-03-08T00:14:41.936Z,99777.28
2023-03-08T00:17:12.035Z,99777.49
2023-03-08T00:19:42.072Z,99774.98
2023-03-08T00:22:12.721Z,99779.84
2023-03-08T00:24:42.791Z,99775.79
2023-03-08T00:27:12.901Z,99776.73
2023-03-08T00:29:42.929Z,99779.22
2023-03-08T00:32:13.149Z,99778.49
2023-03-08T00:34:43.030Z,99780.11
2023-03-08T00:37:13.713Z,99779.37
2023-03-08T00:39:43.821Z,99777.42
2023-03-08T00:42:14.012Z,99773.84
2023-03-08T00:44:43.969Z,99772.47
2023-03-08T00:47:14.625Z,99768.55
2023-03-08T00:49:44.942Z,99767.33
2023-03-08T00:52:15.722Z,99766.54
2023-03-08T00:54:45.639Z,99769.41
2023-03-08T00:57:16.312Z,99768.61
2023-03-08T00:59:46.578Z,99768.23
2023-03-08T01:02:16.677Z,99768.07
2023-03-08T01:04:46.675Z,99767.68
2023-03-08T01:07:17.349Z,99767.05
2023-03-08T01:09:47.450Z,99770.23
2023-03-08T01:12:18.053Z,99774.44
2023-03-08T01:14:48.185Z,99767.62
2023-03-08T01:17:18.294Z,99764.93
2023-03-08T01:19:48.338Z,99761.00
2023-03-08T01:22:18.982Z,99755.95
2023-03-08T01:24:49.649Z,99753.60
2023-03-08T01:27:20.354Z,99752.82
2023-03-08T01:29:50.408Z,99755.23
2023-03-08T01:32:20.591Z,99752.16
2023-03-08T01:34:50.693Z,99746.79
2023-03-08T01:37:20.731Z,99750.17
2023-03-08T01:39:51.432Z,99749.36
2023-03-08T01:42:22.088Z,99747.11
2023-03-08T01:44:52.132Z,99748.53
2023-03-08T01:47:22.836Z,99746.94
2023-03-08T01:49:52.936Z,99750.22
2023-03-08T01:52:23.001Z,99746.30
2023-03-08T01:54:53.397Z,99743.31
2023-03-08T01:57:23.446Z,99738.85
2023-03-08T01:59:53.504Z,99731.79
2023-03-08T02:02:24.594Z,99728.75
2023-03-08T02:04:54.295Z,99726.53
2023-03-08T02:07:24.384Z,99724.02
2023-03-08T02:09:54.968Z,99719.30
2023-03-08T02:12:25.383Z,99715.55
2023-03-08T02:14:55.432Z,99715.76
2023-03-08T02:17:25.902Z,99714.43
2023-03-08T02:19:56.091Z,99715.57
2023-03-08T02:22:26.134Z,99714.84
2023-03-08T02:24:56.808Z,99712.60
2023-03-08T02:27:27.498Z,99712.60
2023-03-08T02:29:58.106Z,99715.49
2023-03-08T02:32:28.785Z,99717.28
2023-03-08T02:34:59.161Z,99720.32
2023-03-08T02:37:29.819Z,99714.23
2023-03-08T02:40:00.508Z,99715.30
2023-03-08T02:42:31.300Z,99714.43
2023-03-08T02:45:01.372Z,99708.61
2023-03-08T02:47:32.129Z,99705.15
2023-03-08T02:50:02.791Z,99705.92
2023-03-08T02:52:32.992Z,99708.04
2023-03-08T02:55:03.591Z,99710.56
2023-03-08T02:57:33.751Z,99709.79
2023-03-08T03:00:04.087Z,99704.03
2023-03-08T03:02:34.904Z,99702.43
2023-03-08T03:05:05.441Z,99698.54
2023-03-08T03:07:35.884Z,99695.60
2023-03-08T03:10:05.981Z,99688.79
2023-03-08T03:12:36.645Z,99690.31
2023-03-08T03:15:06.990Z,99689.32
2023-03-08T03:17:37.701Z,99683.33
2023-03-08T03:20:07.908Z,99680.33
2023-03-08T03:22:38.642Z,99679.10
2023-03-08T03:25:09.127Z,99678.15
2023-03-08T03:27:39.836Z,99679.36
2023-03-08T03:30:10.523Z,99681.60
2023-03-08T03:32:40.717Z,99676.51
2023-03-08T03:35:10.692Z,99673.10
2023-03-08T03:37:40.828Z,99673.36
2023-03-08T03:40:11.052Z,99675.93
2023-03-08T03:42:41.620Z,99673.79
2023-03-08T03:45:12.474Z,99675.93
2023-03-08T03:47:42.759Z,99680.90
2023-03-08T03:50:12.847Z,99680.31
2023-03-08T03:52:43.565Z,99683.41
2023-03-08T03:55:13.619Z,99687.19
2023-03-08T03:57:44.078Z,99689.33
2023-03-08T04:00:14.690Z,99686.49
2023-03-08T04:02:44.890Z,99692.39
2023-03-08T04:05:15.527Z,99692.00
2023-03-08T04:07:46.326Z,99685.77
2023-03-08T04:10:16.658Z,99687.11
2023-03-08T04:12:47.182Z,99692.79
2023-03-08T04:15:17.780Z,99695.73
2023-03-08T04:17:48.245Z,99694.03
2023-03-08T04:20:19.120Z,99691.84
2023-03-08T04:22:49.148Z,99689.79
2023-03-08T04:25:19.862Z,99686.38
2023-03-08T04:27:50.461Z,99682.02
2023-03-08T04:30:21.002Z,99677.36
2023-03-08T04:32:51.512Z,99674.78
2023-03-08T04:35:21.541Z,99672.92
2023-03-08T04:37:51.670Z,99671.34
2023-03-08T04:40:22.042Z,99670.67
2023-03-08T04:42:52.437Z,99664.29
2023-03-08T04:45:23.157Z,99659.36
2023-03-08T04:47:53.286Z,99659.31
2023-03-08T04:50:23.653Z,99654.76
2023-03-08T04:52:54.421Z,99651.20
2023-03-08T04:55:25.154Z,99647.62
2023-03-08T04:57:55.426Z,99649.16
2023-03-08T05:00:25.688Z,99650.55
2023-03-08T05:02:56.134Z,99650.39
2023-03-08T05:05:26.177Z,99643.65
2023-03-08T05:07:56.742Z,99639.41
2023-03-08T05:10:26.878Z,99636.91
2023-03-08T05:12:57.173Z,99636.82
2023-03-08T05:15:27.834Z,99633.26
2023-03-08T05:17:58.533Z,99622.92
2023-03-08T05:20:28.948Z,99618.60
2023-03-08T05:22:59.597Z,99612.45
2023-03-08T05:25:29.590Z,99612.22
2023-03-08T05:28:00.448Z,99613.01
2023-03-08T05:30:30.831Z,99612.88
2023-03-08T05:33:01.483Z,99609.22
2023-03-08T05:35:32.294Z,99600.64
2023-03-08T05:38:02.401Z,99600.00
2023-03-08T05:40:32.877Z,99603.17
2023-03-08T05:43:03.598Z,99603.61
2023-03-08T05:45:34.284Z,99604.01
2023-03-08T05:48:04.597Z,99608.14
2023-03-08T05:50:34.854Z,99609.97
2023-03-08T05:53:05.212Z,99609.53
2023-03-08T05:55:35.891Z,99603.07
2023-03-08T05:58:06.050Z,99603.05
2023-03-08T06:00:36.773Z,99603.19
2023-03-08T06:03:06.870Z,99601.40
2023-03-08T06:05:37.030Z,99599.99
2023-03-08T06:08:07.948Z,99599.62
2023-03-08T06:10:38.045Z,99597.88
2023-03-08T06:13:08.383Z,99593.57
2023-03-08T06:15:38.444Z,99587.12
2023-03-08T06:18:08.852Z,99579.33
2023-03-08T06:20:39.470Z,99578.38
2023-03-08T06:23:09.665Z,99571.22
2023-03-08T06:25:39.839Z,99565.41
2023-03-08T06:28:10.556Z,99563.57
2023-03-08T06:30:40.942Z,99558.30
2023-03-08T06:33:10.925Z,99558.94
2023-03-08T06:35:41.230Z,99559.26
2023-03-08T06:38:11.925Z,99555.84
2023-03-08T06:40:42.086Z,99549.08
2023-03-08T06:43:12.446Z,99547.22
2023-03-08T06:45:42.786Z,99545.88
2023-03-08T06:48:13.619Z,99548.27
2023-03-08T06:50:44.479Z,99547.76
2023-03-08T06:53:14.874Z,99551.53
2023-03-08T06:55:45.602Z,99547.04
2023-03-08T06:58:16.338Z,99544.32
2023-03-08T07:00:47.060Z,99538.96
2023-03-08T07:03:17.513Z,99538.18
2023-03-08T07:05:47.909Z,99537.78
2023-03-08T07:08:18.008Z,99539.11
2023-03-08T07:10:48.082Z,99538.32
2023-03-08T07:13:18.198Z,99538.27
2023-03-08T07:15:48.889Z,99543.15
2023-03-08T07:18:18.958Z,99542.44
2023-03-08T07:20:49.072Z,99537.79
2023-03-08T07:23:19.637Z,99545.03
2023-03-08T07:25:49.614Z,99551.27
2023-03-08T07:28:20.124Z,99556.80
2023-03-08T07:30:50.581Z,99551.79
2023-03-08T07:33:20.775Z,99552.57
2023-03-08T07:35:51.431Z,99552.83
2023-03-08T07:38:21.526Z,99550.45
2023-03-08T07:40:52.043Z,99548.70
2023-03-08T07:43:22.215Z,99545.57
2023-03-08T07:45:52.916Z,99546.49
2023-03-08T07:48:23.121Z,99546.57
2023-03-08T07:50:53.095Z,99546.04
2023-03-08T07:53:23.355Z,99552.34
2023-03-08T07:55:53.480Z,99554.00
2023-03-08T07:58:23.575Z,99550.20
2023-03-08T08:00:53.962Z,99548.28
2023-03-08T08:03:24.332Z,99546.92
2023-03-08T08:05:54.225Z,99544.36
2023-03-08T08:08:24.952Z,99540.52
2023-03-08T08:10:55.136Z,99535.90
2023-03-08T08:13:25.535Z,99532.23
2023-03-08T08:15:55.577Z,99530.91
2023-03-08T08:18:26.062Z,99526.03
2023-03-08T08:20:56.328Z,99521.76
2023-03-08T08:23:26.780Z,99518.86
2023-03-08T08:25:57.326Z,99518.58
2023-03-08T08:28:27.980Z,99518.76
2023-03-08T08:30:58.366Z,99512.32
2023-03-08T08:33:28.949Z,99510.85
2023-03-08T08:35:59.061Z,99512.53
2023-03-08T08:38:29.785Z,99506.35
2023-03-08T08:41:00.118Z,99506.57
2023-03-08T08:43:30.724Z,99502.21
2023-03-08T08:46:00.845Z,99502.98
2023-03-08T08:48:31.657Z,99505.08
2023-03-08T08:51:02.389Z,99500.17
2023-03-08T08:53:32.601Z,99496.02
2023-03-08T08:56:03.197Z,99492.03
2023-03-08T08:58:33.875Z,99489.26
2023-03-08T09:01:04.220Z,99484.07
2023-03-08T09:03:34.287Z,99478.20
2023-03-08T09:06:04.599Z,99475.28
2023-03-08T09:08:35.386Z,99472.96
2023-03-08T09:11:05.812Z,99473.80
2023-03-08T09:13:36.320Z,99472.37
2023-03-08T09:16:06.368Z,99469.97
2023-03-08T09:18:37.249Z,99469.96
2023-03-08T09:21:07.257Z,99462.94
2023-03-08T09:23:37.326Z,99457.06
2023-03-08T09:26:08.020Z,99455.50
2023-03-08T09:28:38.533Z,99455.09
2023-03-08T09:31:08.681Z,99455.39
2023-03-08T09:33:38.837Z,99455.56
2023-03-08T09:36:09.474Z,99453.78
2023-03-08T09:38:39.787Z,99454.66
2023-03-08T09:41:09.874Z,99449.56
2023-03-08T09:43:40.177Z,99448.18
2023-03-08T09:46:11.184Z,99441.58
2023-03-08T09:48:41.159Z,99446.89
2023-03-08T09:51:11.968Z,99444.08
2023-03-08T09:53:42.023Z,99442.49
2023-03-08T09:56:12.592Z,99432.44
2023-03-08T09:58:42.611Z,99438.03
2023-03-08T10:01:13.362Z,99432.75
2023-03-08T10:03:43.834Z,99427.73
2023-03-08T10:06:14.365Z,99425.65
2023-03-08T10:08:44.746Z,99425.04
2023-03-08T10:11:15.289Z,99420.92
2023-03-08T10:13:45.565Z,99413.98
2023-03-08T10:16:15.677Z,99416.16
2023-03-08T10:18:45.944Z,99411.66
2023-03-08T10:21:16.019Z,99412.13
2023-03-08T10:23:46.052Z,99410.43
2023-03-08T10:26:17.042Z,99408.90
2023-03-08T10:28:47.258Z,99401.46
2023-03-08T10:31:17.312Z,99396.00
2023-03-08T10:33:47.973Z,99394.71
2023-03-08T10:36:18.620Z,99391.76
2023-03-08T10:38:48.823Z,99386.85
2023-03-08T10:41:19.100Z,99380.07
2023-03-08T10:43:49.140Z,99381.54
2023-03-08T10:46:19.662Z,99383.38
2023-03-08T10:48:49.840Z,99382.08
2023-03-08T10:51:20.268Z,99378.10
2023-03-08T10:53:50.718Z,99376.79
2023-03-08T10:56:21.232Z,99372.39
2023-03-08T10:58:51.790Z,99369.00
2023-03-08T11:01:21.814Z,99367.61
2023-03-08T11:03:51.835Z,99371.19
2023-03-08T11:06:21.877Z,99370.70
2023-03-08T11:08:52.224Z,99369.66
2023-03-08T11:11:22.528Z,99366.09
2023-03-08T11:13:53.218Z,99362.89
2023-03-08T11:16:23.332Z,99366.82
2023-03-08T11:18:53.655Z,99366.64
2023-03-08T11:21:23.707Z,99364.68
2023-03-08T11:23:54.061Z,99355.11
2023-03-08T11:26:24.649Z,99349.59
2023-03-08T11:28:55.001Z,99347.78
2023-03-08T11:31:25.302Z,99349.19
2023-03-08T11:33:56.201Z,99344.18
2023-03-08T11:36:26.973Z,99341.14
2023-03-08T11:39:00.478Z,99337.62
2023-03-08T11:41:27.966Z,99330.85
2023-03-08T11:43:58.799Z,99324.70
2023-03-08T11:46:29.084Z,99320.21
2023-03-08T11:48:59.246Z,99325.04
2023-03-08T11:51:29.825Z,99330.78
2023-03-08T11:54:00.117Z,99330.53
2023-03-08T11:56:30.684Z,99316.88
2023-03-08T11:59:01.373Z,99310.70
2023-03-08T12:01:31.864Z,99309.31
2023-03-08T12:04:04.276Z,99304.64
2023-03-08T12:06:33.842Z,99293.82
2023-03-08T12:09:04.083Z,99286.51
2023-03-08T12:11:34.590Z,99280.77
2023-03-08T12:14:05.353Z,99283.26
2023-03-08T12:16:35.956Z,99287.28
2023-03-08T12:19:06.513Z,99291.82
2023-03-08T12:21:37.136Z,99297.70
2023-03-08T12:24:08.015Z,99298.00
2023-03-08T12:26:41.899Z,99300.98
2023-03-08T12:29:09.579Z,99310.41
2023-03-08T12:31:40.438Z,99308.88
2023-03-08T12:34:11.717Z,99306.65
2023-03-08T12:36:42.055Z,99300.13
2023-03-08T12:39:12.752Z,99303.15
2023-03-08T12:41:43.615Z,99302.92
2023-03-08T12:44:14.423Z,99304.65
2023-03-08T12:46:56.366Z,99295.16
2023-03-08T12:49:15.978Z,99294.80
2023-03-08T12:51:46.495Z,99289.91
2023-03-08T12:54:17.256Z,99281.28
2023-03-08T12:56:47.695Z,99278.48
2023-03-08T12:59:18.229Z,99274.36
2023-03-08T13:01:48.908Z,99268.53
2023-03-08T13:04:24.888Z,99268.54
2023-03-08T13:06:50.478Z,99273.68
2023-03-08T13:09:20.991Z,99279.87
2023-03-08T13:11:51.801Z,99280.87
2023-03-08T13:14:21.931Z,99281.00
2023-03-08T13:16:51.964Z,99277.32
2023-03-08T13:19:22.139Z,99277.39
2023-03-08T13:21:52.830Z,99273.09
2023-03-08T13:24:23.115Z,99276.39
2023-03-08T13:26:53.678Z,99274.65
2023-03-08T13:29:23.940Z,99272.59
2023-03-08T13:31:54.301Z,99274.29
2023-03-08T13:34:24.607Z,99282.74
2023-03-08T13:36:55.073Z,99283.68
2023-03-08T13:39:25.365Z,99277.93
2023-03-08T13:41:55.609Z,99276.12
2023-03-08T13:44:25.706Z,99272.64
2023-03-08T13:46:56.241Z,99267.76
2023-03-08T13:49:26.435Z,99267.65
2023-03-08T13:51:56.991Z,99263.50
2023-03-08T13:54:27.575Z,99262.24
2023-03-08T13:56:57.660Z,99257.96
2023-03-08T13:59:28.153Z,99254.31
2023-03-08T14:01:58.922Z,99249.33
2023-03-08T14:04:29.576Z,99242.66
2023-03-08T14:07:00.317Z,99241.49
2023-03-08T14:09:31.242Z,99244.44
2023-03-08T14:12:02.085Z,99243.28
2023-03-08T14:14:32.708Z,99239.72
2023-03-08T14:17:06.522Z,99237.56
2023-03-08T14:19:33.846Z,99238.35
2023-03-08T14:22:03.878Z,99237.39
2023-03-08T14:24:34.636Z,99237.41
2023-03-08T14:27:05.014Z,99242.07
2023-03-08T14:29:35.208Z,99239.07
2023-03-08T14:32:06.163Z,99242.85
2023-03-08T14:34:36.194Z,99245.84
2023-03-08T14:37:06.706Z,99253.63
2023-03-08T14:39:37.255Z,99250.26
2023-03-08T14:42:08.118Z,99250.46
2023-03-08T14:44:38.549Z,99250.24
2023-03-08T14:47:09.160Z,99248.05
2023-03-08T14:49:39.905Z,99245.98
2023-03-08T14:52:10.456Z,99239.17
2023-03-08T14:54:41.263Z,99238.05
2023-03-08T14:57:12.176Z,99239.31
2023-03-08T14:59:43.022Z,99240.78
2023-03-08T15:02:13.370Z,99238.20
2023-03-08T15:04:43.647Z,99237.25
2023-03-08T15:07:14.472Z,99230.28
2023-03-08T15:09:45.301Z,99228.27
2023-03-08T15:12:15.776Z,99226.86
2023-03-08T15:14:46.050Z,99221.48
2023-03-08T15:17:16.914Z,99218.73
2023-03-08T15:19:47.427Z,99212.63
2023-03-08T15:22:18.266Z,99207.67
2023-03-08T15:24:49.052Z,99204.00
2023-03-08T15:27:19.605Z,99201.65
2023-03-08T15:29:50.458Z,99199.19
2023-03-08T15:32:21.298Z,99197.13
2023-03-08T15:34:52.098Z,99197.89
2023-03-08T15:37:22.642Z,99197.57
2023-03-08T15:39:53.466Z,99198.94
2023-03-08T15:42:23.656Z,99190.23
2023-03-08T15:44:53.856Z,99183.54
2023-03-08T15:47:24.652Z,99187.18
2023-03-08T15:49:55.227Z,99188.29
2023-03-08T15:52:30.324Z,99190.88
2023-03-08T15:54:55.910Z,99190.96
2023-03-08T15:57:26.825Z,99185.38
2023-03-08T15:59:57.270Z,99187.33
2023-03-08T16:02:27.770Z,99199.12
2023-03-08T16:04:58.607Z,99201.69
2023-03-08T16:07:28.591Z,99198.87
2023-03-08T16:09:59.047Z,99204.18
2023-03-08T16:12:29.607Z,99202.91
2023-03-08T16:15:00.181Z,99200.96
2023-03-08T16:17:30.236Z,99201.66
2023-03-08T16:20:00.650Z,99202.19
2023-03-08T16:22:30.934Z,99206.18
2023-03-08T16:25:01.453Z,99203.60
2023-03-08T16:27:31.747Z,99206.44
2023-03-08T16:30:01.980Z,99209.13
2023-03-08T16:32:32.208Z,99214.01
2023-03-08T16:35:02.990Z,99213.36
2023-03-08T16:37:33.772Z,99210.41
2023-03-08T16:40:04.477Z,99216.29
2023-03-08T16:42:34.744Z,99225.42
2023-03-08T16:45:05.364Z,99230.87
2023-03-08T16:47:35.816Z,99228.99
2023-03-08T16:50:06.090Z,99226.00
2023-03-08T16:52:36.315Z,99228.35
2023-03-08T16:55:06.779Z,99227.13
2023-03-08T16:57:38.582Z,99223.66
2023-03-08T17:00:12.519Z,99220.68
2023-03-08T17:02:37.819Z,99219.75
2023-03-08T17:05:07.943Z,99215.96
2023-03-08T17:07:38.094Z,99220.97
2023-03-08T17:10:08.096Z,99222.93
2023-03-08T17:12:38.615Z,99224.63
2023-03-08T17:15:09.393Z,99220.51
2023-03-08T17:17:40.277Z,99218.25
2023-03-08T17:20:11.090Z,99222.21
2023-03-08T17:22:41.416Z,99217.92
2023-03-08T17:25:11.583Z,99215.10
2023-03-08T17:27:42.265Z,99216.68
2023-03-08T17:30:12.837Z,99211.40
2023-03-08T17:32:43.490Z,99211.57
2023-03-08T17:35:13.681Z,99215.50
2023-03-08T17:37:43.727Z,99214.83
2023-03-08T17:40:14.187Z,99209.06
2023-03-08T17:42:44.311Z,99208.72
2023-03-08T17:45:15.141Z,99202.97
2023-03-08T17:47:45.813Z,99199.08
2023-03-08T17:50:16.542Z,99195.91
2023-03-08T17:52:46.865Z,99203.93
2023-03-08T17:55:17.729Z,99200.05
2023-03-08T17:57:48.343Z,99192.07
2023-03-08T18:00:18.477Z,99186.94
2023-03-08T18:02:49.129Z,99189.29
2023-03-08T18:05:19.909Z,99193.23
2023-03-08T18:07:50.272Z,99193.99
2023-03-08T18:10:20.213Z,99196.37
2023-03-08T18:12:51.010Z,99196.73
2023-03-08T18:15:21.441Z,99191.33
2023-03-08T18:17:51.502Z,99196.56
2023-03-08T18:20:22.082Z,99195.92
2023-03-08T18:22:52.604Z,99190.61
2023-03-08T18:25:23.019Z,99192.32
2023-03-08T18:27:53.271Z,99194.45
2023-03-08T18:30:23.513Z,99195.16
2023-03-08T18:32:53.555Z,99203.42
2023-03-08T18:35:23.667Z,99217.11
2023-03-08T18:37:54.459Z,99221.71
2023-03-08T18:40:25.279Z,99213.82
2023-03-08T18:42:55.815Z,99205.24
2023-03-08T18:45:26.050Z,99200.96
2023-03-08T18:47:56.111Z,99197.28
2023-03-08T18:50:26.712Z,99202.51
2023-03-08T18:52:57.261Z,99207.51
2023-03-08T18:55:27.865Z,99208.84
2023-03-08T18:57:58.495Z,99210.68
2023-03-08T19:00:29.024Z,99204.39
2023-03-08T19:02:59.265Z,99204.56
2023-03-08T19:05:29.849Z,99206.43
2023-03-08T19:08:00.400Z,99205.53
2023-03-08T19:10:32.913Z,99202.15
2023-03-08T19:13:00.693Z,99200.40
2023-03-08T19:15:30.997Z,99197.84
2023-03-08T19:18:01.881Z,99196.07
2023-03-08T19:20:32.403Z,99198.54
2023-03-08T19:23:02.745Z,99203.81
2023-03-08T19:25:33.263Z,99199.48
2023-03-08T19:28:03.432Z,99193.46
2023-03-08T19:30:33.669Z,99189.37
2023-03-08T19:33:04.155Z,99185.21
2023-03-08T19:35:34.531Z,99190.04
2023-03-08T19:38:05.084Z,99195.97
2023-03-08T19:40:35.606Z,99193.51
2023-03-08T19:43:05.976Z,99189.55
2023-03-08T19:45:36.857Z,99191.46
2023-03-08T19:48:07.683Z,99197.76
2023-03-08T19:50:38.285Z,99199.57
2023-03-08T19:53:08.577Z,99203.28
2023-03-08T19:55:38.827Z,99198.16
2023-03-08T19:58:12.350Z,99189.12
2023-03-08T20:00:39.218Z,99175.01
2023-03-08T20:03:10.226Z,99171.34
2023-03-08T20:05:41.069Z,99171.29
2023-03-08T20:08:11.270Z,99162.54
2023-03-08T20:10:41.907Z,99157.29
2023-03-08T20:13:12.231Z,99167.35
2023-03-08T20:15:42.455Z,99164.59
2023-03-08T20:18:12.824Z,99158.75
2023-03-08T20:20:43.397Z,99151.49
2023-03-08T20:23:13.732Z,99150.62
2023-03-08T20:25:44.195Z,99150.07
2023-03-08T20:28:14.199Z,99146.30
2023-03-08T20:30:44.964Z,99149.61
2023-03-08T20:33:15.551Z,99151.08
2023-03-08T20:35:46.408Z,99161.72
2023-03-08T20:38:16.485Z,99161.88
2023-03-08T20:40:47.063Z,99147.96
2023-03-08T20:43:17.689Z,99136.02
2023-03-08T20:45:47.766Z,99140.30
2023-03-08T20:48:18.401Z,99147.06
2023-03-08T20:50:48.666Z,99147.89
2023-03-08T20:53:18.934Z,99147.12
2023-03-08T20:55:49.605Z,99149.65
2023-03-08T20:58:19.885Z,99148.22
2023-03-08T21:00:50.457Z,99145.40
2023-03-08T21:03:20.882Z,99152.31
2023-03-08T21:05:50.823Z,99154.94
2023-03-08T21:08:21.098Z,99152.77
2023-03-08T21:10:51.139Z,99153.98
2023-03-08T21:13:21.902Z,99152.79
2023-03-08T21:15:52.650Z,99147.88
2023-03-08T21:18:22.927Z,99142.28
2023-03-08T21:20:53.515Z,99146.09
2023-03-08T21:23:24.197Z,99146.36
2023-03-08T21:25:54.810Z,99147.88
2023-03-08T21:28:25.054Z,99150.03
2023-03-08T21:30:55.723Z,99153.83
2023-03-08T21:33:25.977Z,99149.67
2023-03-08T21:35:56.352Z,99145.50
2023-03-08T21:38:26.276Z,99146.44
2023-03-08T21:40:56.730Z,99150.81
2023-03-08T21:43:27.012Z,99150.14
2023-03-08T21:45:57.333Z,99148.01
2023-03-08T21:48:27.892Z,99141.53
2023-03-08T21:50:57.926Z,99132.69
2023-03-08T21:53:27.982Z,99133.58
2023-03-08T21:55:58.632Z,99135.68
2023-03-08T21:58:28.643Z,99133.14
2023-03-08T22:00:59.030Z,99130.58
2023-03-08T22:03:29.289Z,99126.71
2023-03-08T22:05:59.329Z,99123.40
2023-03-08T22:08:29.897Z,99124.47
2023-03-08T22:10:59.938Z,99134.25
2023-03-08T22:13:30.104Z,99144.28
2023-03-08T22:16:00.510Z,99149.11
2023-03-08T22:18:30.432Z,99143.04
2023-03-08T22:21:00.724Z,99141.58
2023-03-08T22:23:31.347Z,99138.53
2023-03-08T22:26:01.375Z,99132.57
2023-03-08T22:28:31.749Z,99127.20
2023-03-08T22:31:01.756Z,99116.61
2023-03-08T22:33:31.920Z,99112.55
2023-03-08T22:36:01.922Z,99108.06
2023-03-08T22:38:32.805Z,99103.63
2023-03-08T22:41:03.460Z,99104.53
2023-03-08T22:43:33.500Z,99103.44
2023-03-08T22:46:03.802Z,99097.22
2023-03-08T22:48:33.825Z,99095.69
2023-03-08T22:51:10.735Z,99088.13
2023-03-08T22:53:34.819Z,99075.94
2023-03-08T22:56:05.399Z,99073.22
2023-03-08T22:58:35.484Z,99075.65
2023-03-08T23:01:05.490Z,99081.11
2023-03-08T23:03:35.764Z,99082.15
2023-03-08T23:06:05.845Z,99089.45
2023-03-08T23:08:36.120Z,99092.23
2023-03-08T23:11:06.774Z,99084.66
2023-03-08T23:13:36.833Z,99081.65
2023-03-08T23:16:07.551Z,99079.45
2023-03-08T23:18:37.467Z,99069.81
2023-03-08T23:21:07.549Z,99057.41
2023-03-08T23:23:38.093Z,99056.45
2023-03-08T23:26:08.194Z,99051.59
2023-03-08T23:28:38.478Z,99049.43
2023-03-08T23:31:08.849Z,99056.86
2023-03-08T23:33:39.390Z,99053.33
2023-03-08T23:36:10.149Z,99058.34
2023-03-08T23:38:40.673Z,99051.39
2023-03-08T23:41:10.819Z,99046.19
2023-03-08T23:43:40.715Z,99038.06
2023-03-08T23:46:10.902Z,99042.27
2023-03-08T23:48:41.104Z,99046.80
2023-03-08T23:51:11.807Z,99054.42
2023-03-08T23:53:41.812Z,99062.26
2023-03-08T23:56:12.549Z,99065.39
2023-03-08T23:58:43.154Z,99067.84
